sensor_id;sensor_type;location;lat;lon;timestamp;temperature;humidity
12815;DHT22;6472;52.328;13.070;2024-01-15T00:02:24;1.70;99.90
12815;DHT22;6472;52.328;13.070;2024-01-15T00:04:52;1.70;99.90
12815;DHT22;6472;52.328;13.070;2024-01-15T00:07:20;1.60;99.90
12815;DHT22;6472;52.328;13.070;2024-01-15T00:09:48;1.60;99.90
12815;DHT22;6472;52.328;13.070;2024-01-15T00:12:16;1.60;99.90
12815;DHT22;6472;52.328;13.070;2024-01-15T00:14:44;1.50;99.90
12815;DHT22;6472;52.328;13.070;2024-01-15T00:17:13;1.50;99.90
12815;DHT22;6472;52.328;13.070;2024-01-15T00:19:41;1.50;99.90
12815;DHT22;6472;52.328;13.070;2024-01-15T00:22:09;1.60;99.90
12815;DHT22;6472;52.328;13.070;2024-01-15T00:24:37;1.60;99.90
12815;DHT22;6472;52.328;13.070;2024-01-15T00:27:05;1.60;99.90
12815;DHT22;6472;52.328;13.070;2024-01-15T00:29:34;1.70;99.90
12815;DHT22;6472;52.328;13.070;2024-01-15T00:32:02;1.70;99.90
12815;DHT22;6472;52.328;13.070;2024-01-15T00:34:32;1.70;99.90
12815;DHT22;6472;52.328;13.070;2024-01-15T00:37:00;1.60;99.90
12815;DHT22;6472;52.328;13.070;2024-01-15T00:39:29;1.60;99.90
12815;DHT22;6472;52.328;13.070;2024-01-15T00:41:57;1.70;99.90
12815;DHT22;6472;52.328;13.070;2024-01-15T00:44:25;1.70;99.90
12815;DHT22;6472;52.328;13.070;2024-01-15T00:46:53;1.60;99.90
12815;DHT22;6472;52.328;13.070;2024-01-15T00:49:21;1.60;99.90
12815;DHT22;6472;52.328;13.070;2024-01-15T00:51:51;1.70;99.90
12815;DHT22;6472;52.328;13.070;2024-01-15T00:54:19;1.70;99.90
12815;DHT22;6472;52.328;13.070;2024-01-15T00:56:47;1.70;99.90
12815;DHT22;6472;52.328;13.070;2024-01-15T00:59:15;1.80;99.90
12815;DHT22;6472;52.328;13.070;2024-01-15T01:01:43;1.70;99.90
12815;DHT22;6472;52.328;13.070;2024-01-15T01:04:12;1.80;99.90
12815;DHT22;6472;52.328;13.070;2024-01-15T01:06:41;1.70;99.90
12815;DHT22;6472;52.328;13.070;2024-01-15T01:09:10;1.70;99.90
12815;DHT22;6472;52.328;13.070;2024-01-15T01:11:38;1.70;99.90
12815;DHT22;6472;52.328;13.070;2024-01-15T01:14:06;1.70;99.90
12815;DHT22;6472;52.328;13.070;2024-01-15T01:16:34;1.70;99.90
12815;DHT22;6472;52.328;13.070;2024-01-15T01:19:06;1.70;99.90
12815;DHT22;6472;52.328;13.070;2024-01-15T01:21:35;1.70;99.90
12815;DHT22;6472;52.328;13.070;2024-01-15T01:24:03;1.60;99.90
12815;DHT22;6472;52.328;13.070;2024-01-15T01:26:32;1.60;99.90
12815;DHT22;6472;52.328;13.070;2024-01-15T01:29:00;1.60;99.90
12815;DHT22;6472;52.328;13.070;2024-01-15T01:31:28;1.50;99.90
12815;DHT22;6472;52.328;13.070;2024-01-15T01:33:57;1.50;99.90
12815;DHT22;6472;52.328;13.070;2024-01-15T01:36:25;1.40;99.90
12815;DHT22;6472;52.328;13.070;2024-01-15T01:38:53;1.40;99.90
12815;DHT22;6472;52.328;13.070;2024-01-15T01:41:21;1.40;99.90
12815;DHT22;6472;52.328;13.070;2024-01-15T01:43:52;1.40;99.90
12815;DHT22;6472;52.328;13.070;2024-01-15T01:46:20;1.40;99.90
12815;DHT22;6472;52.328;13.070;2024-01-15T01:48:48;1.40;99.90
12815;DHT22;6472;52.328;13.070;2024-01-15T01:51:16;1.40;99.90
12815;DHT22;6472;52.328;13.070;2024-01-15T01:53:44;1.30;99.90
12815;DHT22;6472;52.328;13.070;2024-01-15T01:56:13;1.40;99.90
12815;DHT22;6472;52.328;13.070;2024-01-15T01:58:42;1.30;99.90
12815;DHT22;6472;52.328;13.070;2024-01-15T02:01:12;1.30;99.90
12815;DHT22;6472;52.328;13.070;2024-01-15T02:03:40;1.40;99.90
12815;DHT22;6472;52.328;13.070;2024-01-15T02:06:08;1.40;99.90
12815;DHT22;6472;52.328;13.070;2024-01-15T02:08:37;1.40;99.90
12815;DHT22;6472;52.328;13.070;2024-01-15T02:11:05;1.30;99.90
12815;DHT22;6472;52.328;13.070;2024-01-15T02:13:33;1.40;99.90
12815;DHT22;6472;52.328;13.070;2024-01-15T02:16:01;1.40;99.90
12815;DHT22;6472;52.328;13.070;2024-01-15T02:18:39;1.40;99.90
12815;DHT22;6472;52.328;13.070;2024-01-15T02:21:07;1.30;99.90
12815;DHT22;6472;52.328;13.070;2024-01-15T02:23:37;1.30;99.90
12815;DHT22;6472;52.328;13.070;2024-01-15T02:26:05;1.30;99.90
12815;DHT22;6472;52.328;13.070;2024-01-15T02:28:34;1.20;99.90
12815;DHT22;6472;52.328;13.070;2024-01-15T02:31:02;1.20;99.90
12815;DHT22;6472;52.328;13.070;2024-01-15T02:33:30;1.20;99.90
12815;DHT22;6472;52.328;13.070;2024-01-15T02:35:58;1.20;99.90
12815;DHT22;6472;52.328;13.070;2024-01-15T02:38:26;1.10;99.90
12815;DHT22;6472;52.328;13.070;2024-01-15T02:40:55;1.10;99.90
12815;DHT22;6472;52.328;13.070;2024-01-15T02:43:23;1.10;99.90
12815;DHT22;6472;52.328;13.070;2024-01-15T02:45:51;1.10;99.90
12815;DHT22;6472;52.328;13.070;2024-01-15T02:48:19;1.10;99.90
12815;DHT22;6472;52.328;13.070;2024-01-15T02:50:47;1.10;99.90
12815;DHT22;6472;52.328;13.070;2024-01-15T02:53:15;1.20;99.90
12815;DHT22;6472;52.328;13.070;2024-01-15T02:55:43;1.10;99.90
12815;DHT22;6472;52.328;13.070;2024-01-15T02:58:12;1.10;99.90
12815;DHT22;6472;52.328;13.070;2024-01-15T03:00:40;1.00;99.90
12815;DHT22;6472;52.328;13.070;2024-01-15T03:03:09;1.00;99.90
12815;DHT22;6472;52.328;13.070;2024-01-15T03:05:37;1.00;99.90
12815;DHT22;6472;52.328;13.070;2024-01-15T03:08:06;1.10;99.90
12815;DHT22;6472;52.328;13.070;2024-01-15T03:10:33;1.10;99.90
12815;DHT22;6472;52.328;13.070;2024-01-15T03:13:01;1.10;99.90
12815;DHT22;6472;52.328;13.070;2024-01-15T03:15:31;1.10;99.90
12815;DHT22;6472;52.328;13.070;2024-01-15T03:17:59;1.10;99.90
12815;DHT22;6472;52.328;13.070;2024-01-15T03:20:27;1.10;99.90
12815;DHT22;6472;52.328;13.070;2024-01-15T03:22:55;1.10;99.90
12815;DHT22;6472;52.328;13.070;2024-01-15T03:25:23;1.20;99.90
12815;DHT22;6472;52.328;13.070;2024-01-15T03:27:51;1.20;99.90
12815;DHT22;6472;52.328;13.070;2024-01-15T03:30:19;1.20;99.90
12815;DHT22;6472;52.328;13.070;2024-01-15T03:32:48;1.20;99.90
12815;DHT22;6472;52.328;13.070;2024-01-15T03:35:17;1.20;99.90
12815;DHT22;6472;52.328;13.070;2024-01-15T03:37:44;1.20;99.90
12815;DHT22;6472;52.328;13.070;2024-01-15T03:40:13;1.30;99.90
12815;DHT22;6472;52.328;13.070;2024-01-15T03:42:43;1.30;99.90
12815;DHT22;6472;52.328;13.070;2024-01-15T03:45:11;1.40;99.90
12815;DHT22;6472;52.328;13.070;2024-01-15T03:47:39;1.30;99.90
12815;DHT22;6472;52.328;13.070;2024-01-15T03:50:09;1.30;99.90
12815;DHT22;6472;52.328;13.070;2024-01-15T03:52:37;1.40;99.90
12815;DHT22;6472;52.328;13.070;2024-01-15T03:55:06;1.30;99.90
12815;DHT22;6472;52.328;13.070;2024-01-15T03:57:34;1.40;99.90
12815;DHT22;6472;52.328;13.070;2024-01-15T04:00:02;1.40;99.90
12815;DHT22;6472;52.328;13.070;2024-01-15T04:02:31;1.40;99.90
12815;DHT22;6472;52.328;13.070;2024-01-15T04:04:59;1.40;99.90
12815;DHT22;6472;52.328;13.070;2024-01-15T04:07:28;1.50;99.90
12815;DHT22;6472;52.328;13.070;2024-01-15T04:09:56;1.50;99.90
12815;DHT22;6472;52.328;13.070;2024-01-15T04:12:24;1.50;99.90
12815;DHT22;6472;52.328;13.070;2024-01-15T04:14:52;1.50;99.90
12815;DHT22;6472;52.328;13.070;2024-01-15T04:17:20;1.50;99.90
12815;DHT22;6472;52.328;13.070;2024-01-15T04:19:48;1.50;99.90
12815;DHT22;6472;52.328;13.070;2024-01-15T04:22:16;1.50;99.90
12815;DHT22;6472;52.328;13.070;2024-01-15T04:24:46;1.50;99.90
12815;DHT22;6472;52.328;13.070;2024-01-15T04:27:14;1.50;99.90
12815;DHT22;6472;52.328;13.070;2024-01-15T04:29:42;1.50;99.90
12815;DHT22;6472;52.328;13.070;2024-01-15T04:32:11;1.50;99.90
12815;DHT22;6472;52.328;13.070;2024-01-15T04:34:39;1.50;99.90
12815;DHT22;6472;52.328;13.070;2024-01-15T04:37:07;1.50;99.90
12815;DHT22;6472;52.328;13.070;2024-01-15T04:39:35;1.50;99.90
12815;DHT22;6472;52.328;13.070;2024-01-15T04:42:05;1.50;99.90
12815;DHT22;6472;52.328;13.070;2024-01-15T04:44:33;1.50;99.90
12815;DHT22;6472;52.328;13.070;2024-01-15T04:47:01;1.60;99.90
12815;DHT22;6472;52.328;13.070;2024-01-15T04:49:28;1.60;99.90
12815;DHT22;6472;52.328;13.070;2024-01-15T04:51:57;1.60;99.90
12815;DHT22;6472;52.328;13.070;2024-01-15T04:54:25;1.60;99.90
12815;DHT22;6472;52.328;13.070;2024-01-15T04:56:53;1.60;99.90
12815;DHT22;6472;52.328;13.070;2024-01-15T04:59:22;1.60;99.90
12815;DHT22;6472;52.328;13.070;2024-01-15T05:01:50;1.60;99.90
12815;DHT22;6472;52.328;13.070;2024-01-15T05:04:18;1.60;99.90
12815;DHT22;6472;52.328;13.070;2024-01-15T05:06:46;1.60;99.90
12815;DHT22;6472;52.328;13.070;2024-01-15T05:09:14;1.60;99.90
12815;DHT22;6472;52.328;13.070;2024-01-15T05:11:42;1.60;99.90
12815;DHT22;6472;52.328;13.070;2024-01-15T05:14:10;1.60;99.90
12815;DHT22;6472;52.328;13.070;2024-01-15T05:16:40;1.60;99.90
12815;DHT22;6472;52.328;13.070;2024-01-15T05:19:08;1.60;99.90
12815;DHT22;6472;52.328;13.070;2024-01-15T05:21:36;1.70;99.90
12815;DHT22;6472;52.328;13.070;2024-01-15T05:24:05;1.60;99.90
12815;DHT22;6472;52.328;13.070;2024-01-15T05:26:33;1.70;99.90
12815;DHT22;6472;52.328;13.070;2024-01-15T05:29:00;1.70;99.90
12815;DHT22;6472;52.328;13.070;2024-01-15T05:31:28;1.70;99.90
12815;DHT22;6472;52.328;13.070;2024-01-15T05:33:58;1.70;99.90
12815;DHT22;6472;52.328;13.070;2024-01-15T05:36:26;1.70;99.90
12815;DHT22;6472;52.328;13.070;2024-01-15T05:38:54;1.70;99.90
12815;DHT22;6472;52.328;13.070;2024-01-15T05:41:22;1.70;99.90
12815;DHT22;6472;52.328;13.070;2024-01-15T05:43:50;1.70;99.90
12815;DHT22;6472;52.328;13.070;2024-01-15T05:46:18;1.80;99.90
12815;DHT22;6472;52.328;13.070;2024-01-15T05:48:46;1.70;99.90
12815;DHT22;6472;52.328;13.070;2024-01-15T05:51:16;1.70;99.90
12815;DHT22;6472;52.328;13.070;2024-01-15T05:53:44;1.80;99.90
12815;DHT22;6472;52.328;13.070;2024-01-15T05:56:14;1.80;99.90
12815;DHT22;6472;52.328;13.070;2024-01-15T05:58:42;1.80;99.90
12815;DHT22;6472;52.328;13.070;2024-01-15T06:01:10;1.80;99.90
12815;DHT22;6472;52.328;13.070;2024-01-15T06:03:38;1.80;99.90
12815;DHT22;6472;52.328;13.070;2024-01-15T06:06:06;1.80;99.90
12815;DHT22;6472;52.328;13.070;2024-01-15T06:08:37;1.80;99.90
12815;DHT22;6472;52.328;13.070;2024-01-15T06:11:06;1.80;99.90
12815;DHT22;6472;52.328;13.070;2024-01-15T06:13:34;1.80;99.90
12815;DHT22;6472;52.328;13.070;2024-01-15T06:16:02;1.80;99.90
12815;DHT22;6472;52.328;13.070;2024-01-15T06:18:33;1.80;99.90
12815;DHT22;6472;52.328;13.070;2024-01-15T06:21:01;1.80;99.90
12815;DHT22;6472;52.328;13.070;2024-01-15T06:27:01;1.90;99.90
12815;DHT22;6472;52.328;13.070;2024-01-15T06:29:30;2.10;99.90
12815;DHT22;6472;52.328;13.070;2024-01-15T06:31:58;1.90;99.90
12815;DHT22;6472;52.328;13.070;2024-01-15T06:34:26;1.80;99.90
12815;DHT22;6472;52.328;13.070;2024-01-15T06:36:54;1.80;99.90
12815;DHT22;6472;52.328;13.070;2024-01-15T06:39:22;1.80;99.90
12815;DHT22;6472;52.328;13.070;2024-01-15T06:41:49;1.80;99.90
12815;DHT22;6472;52.328;13.070;2024-01-15T06:44:19;1.90;99.90
12815;DHT22;6472;52.328;13.070;2024-01-15T06:46:48;1.70;99.90
12815;DHT22;6472;52.328;13.070;2024-01-15T06:49:17;1.80;99.90
12815;DHT22;6472;52.328;13.070;2024-01-15T06:51:45;1.80;99.90
12815;DHT22;6472;52.328;13.070;2024-01-15T06:54:15;1.80;99.90
12815;DHT22;6472;52.328;13.070;2024-01-15T06:56:43;1.80;99.90
12815;DHT22;6472;52.328;13.070;2024-01-15T06:59:11;1.80;99.90
12815;DHT22;6472;52.328;13.070;2024-01-15T07:01:42;1.80;99.90
12815;DHT22;6472;52.328;13.070;2024-01-15T07:04:11;1.80;99.90
12815;DHT22;6472;52.328;13.070;2024-01-15T07:06:39;1.80;99.90
12815;DHT22;6472;52.328;13.070;2024-01-15T07:09:07;1.80;99.90
12815;DHT22;6472;52.328;13.070;2024-01-15T07:11:36;1.80;99.90
12815;DHT22;6472;52.328;13.070;2024-01-15T07:14:04;1.80;99.90
12815;DHT22;6472;52.328;13.070;2024-01-15T07:16:32;1.80;99.90
12815;DHT22;6472;52.328;13.070;2024-01-15T07:19:05;1.80;99.90
12815;DHT22;6472;52.328;13.070;2024-01-15T07:21:34;1.70;99.90
12815;DHT22;6472;52.328;13.070;2024-01-15T07:24:02;1.70;99.90
12815;DHT22;6472;52.328;13.070;2024-01-15T07:26:30;1.70;99.90
12815;DHT22;6472;52.328;13.070;2024-01-15T07:28:58;1.80;99.90
12815;DHT22;6472;52.328;13.070;2024-01-15T07:31:27;1.80;99.90
12815;DHT22;6472;52.328;13.070;2024-01-15T07:33:55;1.90;99.90
12815;DHT22;6472;52.328;13.070;2024-01-15T07:39:57;1.90;99.90
12815;DHT22;6472;52.328;13.070;2024-01-15T07:42:25;1.90;99.90
12815;DHT22;6472;52.328;13.070;2024-01-15T07:44:53;1.90;99.90
12815;DHT22;6472;52.328;13.070;2024-01-15T07:47:21;1.90;99.90
12815;DHT22;6472;52.328;13.070;2024-01-15T07:49:49;2.00;99.90
12815;DHT22;6472;52.328;13.070;2024-01-15T07:52:17;2.00;99.90
12815;DHT22;6472;52.328;13.070;2024-01-15T07:54:45;2.00;99.90
12815;DHT22;6472;52.328;13.070;2024-01-15T07:57:15;2.00;99.90
12815;DHT22;6472;52.328;13.070;2024-01-15T07:59:43;2.00;99.90
12815;DHT22;6472;52.328;13.070;2024-01-15T08:02:11;2.00;99.90
12815;DHT22;6472;52.328;13.070;2024-01-15T08:04:39;2.10;99.90
12815;DHT22;6472;52.328;13.070;2024-01-15T08:07:07;2.10;99.90
12815;DHT22;6472;52.328;13.070;2024-01-15T08:09:35;2.00;99.90
12815;DHT22;6472;52.328;13.070;2024-01-15T08:12:04;2.00;99.90
12815;DHT22;6472;52.328;13.070;2024-01-15T08:14:34;2.10;99.90
12815;DHT22;6472;52.328;13.070;2024-01-15T08:17:02;2.10;99.90
12815;DHT22;6472;52.328;13.070;2024-01-15T08:19:30;2.20;99.90
12815;DHT22;6472;52.328;13.070;2024-01-15T08:21:58;2.10;99.90
12815;DHT22;6472;52.328;13.070;2024-01-15T08:24:26;2.10;99.90
12815;DHT22;6472;52.328;13.070;2024-01-15T08:26:55;2.20;99.90
12815;DHT22;6472;52.328;13.070;2024-01-15T08:29:23;2.20;99.90
12815;DHT22;6472;52.328;13.070;2024-01-15T08:31:53;2.20;99.90
12815;DHT22;6472;52.328;13.070;2024-01-15T08:34:21;2.20;99.90
12815;DHT22;6472;52.328;13.070;2024-01-15T08:36:50;2.30;99.90
12815;DHT22;6472;52.328;13.070;2024-01-15T08:39:18;2.30;99.90
12815;DHT22;6472;52.328;13.070;2024-01-15T08:41:46;2.30;99.90
12815;DHT22;6472;52.328;13.070;2024-01-15T08:44:14;2.30;99.90
12815;DHT22;6472;52.328;13.070;2024-01-15T08:46:43;2.20;99.90
12815;DHT22;6472;52.328;13.070;2024-01-15T08:49:12;2.30;99.90
12815;DHT22;6472;52.328;13.070;2024-01-15T08:51:40;2.30;99.90
12815;DHT22;6472;52.328;13.070;2024-01-15T08:54:08;2.30;99.90
12815;DHT22;6472;52.328;13.070;2024-01-15T08:56:36;2.20;99.90
12815;DHT22;6472;52.328;13.070;2024-01-15T08:59:05;2.30;99.90
12815;DHT22;6472;52.328;13.070;2024-01-15T09:01:34;2.20;99.90
12815;DHT22;6472;52.328;13.070;2024-01-15T09:04:02;2.30;99.90
12815;DHT22;6472;52.328;13.070;2024-01-15T09:06:32;2.30;99.90
12815;DHT22;6472;52.328;13.070;2024-01-15T09:09:00;2.30;99.90
12815;DHT22;6472;52.328;13.070;2024-01-15T09:11:28;2.30;99.90
12815;DHT22;6472;52.328;13.070;2024-01-15T09:13:56;2.30;99.90
12815;DHT22;6472;52.328;13.070;2024-01-15T09:16:24;2.30;99.90
12815;DHT22;6472;52.328;13.070;2024-01-15T09:18:52;2.30;99.90
12815;DHT22;6472;52.328;13.070;2024-01-15T09:21:20;2.30;99.90
12815;DHT22;6472;52.328;13.070;2024-01-15T09:23:49;2.40;99.90
12815;DHT22;6472;52.328;13.070;2024-01-15T09:26:17;2.30;99.90
12815;DHT22;6472;52.328;13.070;2024-01-15T09:28:45;2.30;99.90
12815;DHT22;6472;52.328;13.070;2024-01-15T09:31:13;2.40;99.90
12815;DHT22;6472;52.328;13.070;2024-01-15T09:37:00;2.40;99.90
12815;DHT22;6472;52.328;13.070;2024-01-15T09:39:30;2.40;99.90
12815;DHT22;6472;52.328;13.070;2024-01-15T09:41:58;2.40;99.90
12815;DHT22;6472;52.328;13.070;2024-01-15T09:44:27;2.40;99.90
12815;DHT22;6472;52.328;13.070;2024-01-15T09:46:57;2.50;99.90
12815;DHT22;6472;52.328;13.070;2024-01-15T09:49:25;2.50;99.90
12815;DHT22;6472;52.328;13.070;2024-01-15T09:51:55;2.60;99.90
12815;DHT22;6472;52.328;13.070;2024-01-15T09:54:38;2.60;99.90
12815;DHT22;6472;52.328;13.070;2024-01-15T09:57:07;2.60;99.90
12815;DHT22;6472;52.328;13.070;2024-01-15T09:59:38;2.60;99.90
12815;DHT22;6472;52.328;13.070;2024-01-15T10:02:07;2.80;99.90
12815;DHT22;6472;52.328;13.070;2024-01-15T10:04:36;2.70;99.90
12815;DHT22;6472;52.328;13.070;2024-01-15T10:07:05;2.90;99.90
12815;DHT22;6472;52.328;13.070;2024-01-15T10:09:34;2.60;99.90
12815;DHT22;6472;52.328;13.070;2024-01-15T10:12:04;2.60;99.90
12815;DHT22;6472;52.328;13.070;2024-01-15T10:14:33;2.60;99.90
12815;DHT22;6472;52.328;13.070;2024-01-15T10:17:00;2.70;99.90
12815;DHT22;6472;52.328;13.070;2024-01-15T10:19:36;2.70;99.90
12815;DHT22;6472;52.328;13.070;2024-01-15T10:22:04;2.70;99.90
12815;DHT22;6472;52.328;13.070;2024-01-15T10:24:36;2.80;99.90
12815;DHT22;6472;52.328;13.070;2024-01-15T10:27:08;2.80;99.90
12815;DHT22;6472;52.328;13.070;2024-01-15T10:29:36;2.80;99.90
12815;DHT22;6472;52.328;13.070;2024-01-15T10:32:07;2.80;99.90
12815;DHT22;6472;52.328;13.070;2024-01-15T10:34:38;2.90;99.90
12815;DHT22;6472;52.328;13.070;2024-01-15T10:37:07;2.90;99.90
12815;DHT22;6472;52.328;13.070;2024-01-15T10:39:35;3.00;99.90
12815;DHT22;6472;52.328;13.070;2024-01-15T10:42:06;3.00;99.90
12815;DHT22;6472;52.328;13.070;2024-01-15T10:44:35;3.00;99.90
12815;DHT22;6472;52.328;13.070;2024-01-15T10:47:04;3.00;99.90
12815;DHT22;6472;52.328;13.070;2024-01-15T10:49:32;3.10;99.90
12815;DHT22;6472;52.328;13.070;2024-01-15T10:52:01;3.00;99.90
12815;DHT22;6472;52.328;13.070;2024-01-15T10:54:31;3.10;99.90
12815;DHT22;6472;52.328;13.070;2024-01-15T10:57:00;3.10;99.90
12815;DHT22;6472;52.328;13.070;2024-01-15T10:59:31;3.00;99.90
12815;DHT22;6472;52.328;13.070;2024-01-15T11:02:00;2.80;99.90
12815;DHT22;6472;52.328;13.070;2024-01-15T11:04:31;2.70;99.90
12815;DHT22;6472;52.328;13.070;2024-01-15T11:07:00;2.50;99.90
12815;DHT22;6472;52.328;13.070;2024-01-15T11:09:30;2.40;99.90
12815;DHT22;6472;52.328;13.070;2024-01-15T11:12:07;2.20;99.90
12815;DHT22;6472;52.328;13.070;2024-01-15T11:14:40;2.10;99.90
12815;DHT22;6472;52.328;13.070;2024-01-15T11:17:11;2.20;99.90
12815;DHT22;6472;52.328;13.070;2024-01-15T11:19:43;2.30;99.90
12815;DHT22;6472;52.328;13.070;2024-01-15T11:22:49;2.30;99.90
12815;DHT22;6472;52.328;13.070;2024-01-15T11:25:19;2.40;99.90
12815;DHT22;6472;52.328;13.070;2024-01-15T11:27:48;2.50;99.90
12815;DHT22;6472;52.328;13.070;2024-01-15T11:30:20;2.50;99.90
12815;DHT22;6472;52.328;13.070;2024-01-15T11:32:53;2.50;99.90
12815;DHT22;6472;52.328;13.070;2024-01-15T11:35:21;2.50;99.90
12815;DHT22;6472;52.328;13.070;2024-01-15T11:37:57;2.60;99.90
12815;DHT22;6472;52.328;13.070;2024-01-15T11:40:37;2.60;99.90
12815;DHT22;6472;52.328;13.070;2024-01-15T11:43:06;2.50;99.90
12815;DHT22;6472;52.328;13.070;2024-01-15T11:45:37;2.30;99.90
12815;DHT22;6472;52.328;13.070;2024-01-15T11:48:14;2.20;99.90
12815;DHT22;6472;52.328;13.070;2024-01-15T11:50:46;2.20;99.90
12815;DHT22;6472;52.328;13.070;2024-01-15T11:53:21;2.30;99.90
12815;DHT22;6472;52.328;13.070;2024-01-15T11:55:51;2.20;99.90
12815;DHT22;6472;52.328;13.070;2024-01-15T11:58:20;2.20;99.90
12815;DHT22;6472;52.328;13.070;2024-01-15T12:00:53;2.10;99.90
12815;DHT22;6472;52.328;13.070;2024-01-15T12:03:21;2.20;99.90
12815;DHT22;6472;52.328;13.070;2024-01-15T12:05:50;2.20;99.90
12815;DHT22;6472;52.328;13.070;2024-01-15T12:08:23;2.20;99.90
12815;DHT22;6472;52.328;13.070;2024-01-15T12:10:52;2.20;99.90
12815;DHT22;6472;52.328;13.070;2024-01-15T12:13:20;2.20;99.90
12815;DHT22;6472;52.328;13.070;2024-01-15T12:15:50;2.20;99.90
12815;DHT22;6472;52.328;13.070;2024-01-15T12:18:18;2.00;99.90
12815;DHT22;6472;52.328;13.070;2024-01-15T12:20:47;2.20;99.90
12815;DHT22;6472;52.328;13.070;2024-01-15T12:23:16;2.20;99.90
12815;DHT22;6472;52.328;13.070;2024-01-15T12:25:45;2.10;99.90
12815;DHT22;6472;52.328;13.070;2024-01-15T12:28:15;2.00;99.90
12815;DHT22;6472;52.328;13.070;2024-01-15T12:30:47;1.90;99.90
12815;DHT22;6472;52.328;13.070;2024-01-15T12:33:19;1.90;99.90
12815;DHT22;6472;52.328;13.070;2024-01-15T12:35:48;1.80;99.90
12815;DHT22;6472;52.328;13.070;2024-01-15T12:38:18;1.70;99.90
12815;DHT22;6472;52.328;13.070;2024-01-15T12:40:47;1.70;99.90
12815;DHT22;6472;52.328;13.070;2024-01-15T12:43:16;1.70;99.90
12815;DHT22;6472;52.328;13.070;2024-01-15T12:45:45;1.70;99.90
12815;DHT22;6472;52.328;13.070;2024-01-15T12:48:14;1.70;99.90
12815;DHT22;6472;52.328;13.070;2024-01-15T12:50:47;1.70;99.90
12815;DHT22;6472;52.328;13.070;2024-01-15T12:53:15;1.80;99.90
12815;DHT22;6472;52.328;13.070;2024-01-15T12:55:46;1.80;99.90
12815;DHT22;6472;52.328;13.070;2024-01-15T12:58:14;1.90;99.90
12815;DHT22;6472;52.328;13.070;2024-01-15T13:00:46;2.00;99.90
12815;DHT22;6472;52.328;13.070;2024-01-15T13:03:14;2.00;99.90
12815;DHT22;6472;52.328;13.070;2024-01-15T13:05:43;2.00;99.90
12815;DHT22;6472;52.328;13.070;2024-01-15T13:08:13;2.00;99.90
12815;DHT22;6472;52.328;13.070;2024-01-15T13:10:41;2.00;99.90
12815;DHT22;6472;52.328;13.070;2024-01-15T13:13:10;1.90;99.90
12815;DHT22;6472;52.328;13.070;2024-01-15T13:15:38;1.90;99.90
12815;DHT22;6472;52.328;13.070;2024-01-15T13:18:06;1.90;99.90
12815;DHT22;6472;52.328;13.070;2024-01-15T13:20:35;1.90;99.90
12815;DHT22;6472;52.328;13.070;2024-01-15T13:23:04;1.90;99.90
12815;DHT22;6472;52.328;13.070;2024-01-15T13:25:33;1.90;99.90
12815;DHT22;6472;52.328;13.070;2024-01-15T13:28:05;1.90;99.90
12815;DHT22;6472;52.328;13.070;2024-01-15T13:30:33;1.90;99.90
12815;DHT22;6472;52.328;13.070;2024-01-15T13:33:01;1.90;99.90
12815;DHT22;6472;52.328;13.070;2024-01-15T13:35:31;1.90;99.90
12815;DHT22;6472;52.328;13.070;2024-01-15T13:38:00;1.80;99.90
12815;DHT22;6472;52.328;13.070;2024-01-15T13:40:27;1.80;99.90
12815;DHT22;6472;52.328;13.070;2024-01-15T13:42:57;1.80;99.90
12815;DHT22;6472;52.328;13.070;2024-01-15T13:45:25;1.80;99.90
12815;DHT22;6472;52.328;13.070;2024-01-15T13:47:53;1.80;99.90
12815;DHT22;6472;52.328;13.070;2024-01-15T13:50:21;1.80;99.90
12815;DHT22;6472;52.328;13.070;2024-01-15T13:52:51;1.80;99.90
12815;DHT22;6472;52.328;13.070;2024-01-15T13:55:19;1.70;99.90
12815;DHT22;6472;52.328;13.070;2024-01-15T13:57:47;1.80;99.90
12815;DHT22;6472;52.328;13.070;2024-01-15T14:00:17;1.80;99.90
12815;DHT22;6472;52.328;13.070;2024-01-15T14:02:46;1.90;99.90
12815;DHT22;6472;52.328;13.070;2024-01-15T14:05:15;1.80;99.90
12815;DHT22;6472;52.328;13.070;2024-01-15T14:07:43;1.80;99.90
12815;DHT22;6472;52.328;13.070;2024-01-15T14:10:11;1.80;99.90
12815;DHT22;6472;52.328;13.070;2024-01-15T14:12:39;1.80;99.90
12815;DHT22;6472;52.328;13.070;2024-01-15T14:15:08;1.80;99.90
12815;DHT22;6472;52.328;13.070;2024-01-15T14:17:37;1.80;99.90
12815;DHT22;6472;52.328;13.070;2024-01-15T14:20:07;1.80;99.90
12815;DHT22;6472;52.328;13.070;2024-01-15T14:22:36;1.80;99.90
12815;DHT22;6472;52.328;13.070;2024-01-15T14:25:05;1.80;99.90
12815;DHT22;6472;52.328;13.070;2024-01-15T14:27:33;1.80;99.90
12815;DHT22;6472;52.328;13.070;2024-01-15T14:30:01;1.70;99.90
12815;DHT22;6472;52.328;13.070;2024-01-15T14:32:29;1.70;99.90
12815;DHT22;6472;52.328;13.070;2024-01-15T14:34:58;1.80;99.90
12815;DHT22;6472;52.328;13.070;2024-01-15T14:37:27;1.70;99.90
12815;DHT22;6472;52.328;13.070;2024-01-15T14:39:55;1.80;99.90
12815;DHT22;6472;52.328;13.070;2024-01-15T14:42:23;1.70;99.90
12815;DHT22;6472;52.328;13.070;2024-01-15T14:44:52;1.80;99.90
12815;DHT22;6472;52.328;13.070;2024-01-15T14:47:20;1.80;99.90
12815;DHT22;6472;52.328;13.070;2024-01-15T14:49:51;1.70;99.90
12815;DHT22;6472;52.328;13.070;2024-01-15T14:52:20;1.70;99.90
12815;DHT22;6472;52.328;13.070;2024-01-15T14:54:48;1.60;99.90
12815;DHT22;6472;52.328;13.070;2024-01-15T14:57:16;1.50;99.90
12815;DHT22;6472;52.328;13.070;2024-01-15T14:59:45;1.50;99.90
12815;DHT22;6472;52.328;13.070;2024-01-15T15:02:13;1.50;99.90
12815;DHT22;6472;52.328;13.070;2024-01-15T15:04:41;1.60;99.90
12815;DHT22;6472;52.328;13.070;2024-01-15T15:07:15;1.50;99.90
12815;DHT22;6472;52.328;13.070;2024-01-15T15:09:44;1.40;99.90
12815;DHT22;6472;52.328;13.070;2024-01-15T15:12:12;1.50;99.90
12815;DHT22;6472;52.328;13.070;2024-01-15T15:14:41;1.50;99.90
12815;DHT22;6472;52.328;13.070;2024-01-15T15:17:27;1.50;99.90
12815;DHT22;6472;52.328;13.070;2024-01-15T15:19:55;1.40;99.90
12815;DHT22;6472;52.328;13.070;2024-01-15T15:22:23;1.40;99.90
12815;DHT22;6472;52.328;13.070;2024-01-15T15:24:53;1.40;99.90
12815;DHT22;6472;52.328;13.070;2024-01-15T15:27:21;1.50;99.90
12815;DHT22;6472;52.328;13.070;2024-01-15T15:29:49;1.40;99.90
12815;DHT22;6472;52.328;13.070;2024-01-15T15:32:18;1.40;99.90
12815;DHT22;6472;52.328;13.070;2024-01-15T15:34:46;1.30;99.90
12815;DHT22;6472;52.328;13.070;2024-01-15T15:37:14;1.40;99.90
12815;DHT22;6472;52.328;13.070;2024-01-15T15:39:44;1.30;99.90
12815;DHT22;6472;52.328;13.070;2024-01-15T15:42:13;1.40;99.90
12815;DHT22;6472;52.328;13.070;2024-01-15T15:44:42;1.30;99.90
12815;DHT22;6472;52.328;13.070;2024-01-15T15:47:13;1.30;99.90
12815;DHT22;6472;52.328;13.070;2024-01-15T15:49:42;1.30;99.90
12815;DHT22;6472;52.328;13.070;2024-01-15T15:52:10;1.30;99.90
12815;DHT22;6472;52.328;13.070;2024-01-15T15:54:38;1.30;99.90
12815;DHT22;6472;52.328;13.070;2024-01-15T15:57:07;1.30;99.90
12815;DHT22;6472;52.328;13.070;2024-01-15T15:59:36;1.20;99.90
12815;DHT22;6472;52.328;13.070;2024-01-15T16:02:04;1.20;99.90
12815;DHT22;6472;52.328;13.070;2024-01-15T16:04:32;1.20;99.90
12815;DHT22;6472;52.328;13.070;2024-01-15T16:07:01;1.20;99.90